Friday, August 17, 2018, 10:54 PM EDT
Back to Local

KAKR, Akron Fulton International

Location: Akron, OH, United States Lat: 41.033
Local Time: 10:54 PM EDT ( 2:54 GMT) Lon: -81.467
Time Zone: US/Eastern Elev: 1069 ft

Show me the last for .
Show Decoded

2018-08-17 22:38 METAR KAKR 180238Z AUTO 22008KT 4SM RA BR BKN048 BKN075 OVC090 21/19 A2997 RMK
                 AO2 WSHFT 0159 TSE04 P0062 T02110194 =
2018-08-17 22:19 METAR KAKR 180219Z AUTO 22008G20KT 3SM VCTS RA BR BKN030 OVC075 21/19 A2998 RMK
                 AO2 WSHFT 0159 TSE04 P0054 T02110194 =
2018-08-17 22:16 METAR KAKR 180216Z AUTO 22010G20KT 1 3/4SM +RA BR BKN030 OVC080 21/19 A2998 RMK
                 AO2 WSHFT 0159 TSE04 P0053 T02110189 =
2018-08-17 22:09 METAR KAKR 180209Z AUTO 22011G21KT 1SM +RA BR BKN022 OVC070 21/19 A2999 RMK AO2
                 WSHFT 0142 LTG DSNT W TSE04 P0047 T02110189 =
2018-08-17 22:00 METAR KAKR 180200Z AUTO 24012G21KT 1 1/4SM +TSRA BKN022 BKN036 OVC095 22/19
                 A2999 RMK AO2 WSHFT 0142 VIS 3/4V5 P0020 T02170189 =
2018-08-17 21:54 METAR KAKR 180154Z AUTO 28015G25KT 2 1/2SM TSRA SCT033 BKN070 OVC110 22/19 A2999
                 RMK AO2 VIS 1V5 LTG DSNT W RAB48 TSB40 SLP147 P0011 T02220189 =
2018-08-17 21:46 METAR KAKR 180146Z AUTO 26019G25KT 7SM TS FEW013 BKN075 OVC110 24/21 A2999 RMK
                 AO2 LTG DSNT W TSB40 PRESRR T02390211 =
2018-08-17 21:32 METAR KAKR 180132Z AUTO 22010KT 10SM VCTS FEW080 OVC100 24/21 A2997 RMK AO2 LTG
                 DSNT SW AND W T02390211 =
2018-08-17 20:54 METAR KAKR 180054Z AUTO 20009KT 10SM FEW085 BKN110 24/21 A2995 RMK AO2 LTG DSNT
                 W SLP135 T02390211 =
2018-08-17 19:54 METAR KAKR 172354Z AUTO 19007KT 10SM CLR 24/21 A2996 RMK AO2 SLP136 60005
                 T02440206 10256 20217 55003 =
2018-08-17 18:54 METAR KAKR 172254Z AUTO 20008KT 10SM CLR 25/21 A2995 RMK AO2 SLP133 T02500206 =
2018-08-17 17:54 METAR KAKR 172154Z AUTO 20008KT 10SM FEW032 BKN050 OVC095 26/21 A2996 RMK AO2
                 SLP135 T02560206 =
2018-08-17 16:54 METAR KAKR 172054Z AUTO 21009KT 10SM FEW100 25/20 A2997 RMK AO2 SLP138 60005
                 T02500200 55011 =
2018-08-17 15:54 METAR KAKR 171954Z AUTO 14004KT 10SM CLR 24/20 A2996 RMK AO2 RAE12 SLP135 P0000
                 T02390200 =
2018-08-17 15:12 METAR KAKR 171912Z AUTO 14004KT 10SM FEW050 BKN110 22/19 A2996 RMK AO2 LTG DSNT
                 E AND SE RAE12 P0000 T02220194 =
2018-08-17 14:54 METAR KAKR 171854Z AUTO 13005KT 8SM VCTS -RA FEW060 BKN100 OVC120 22/19 A2997
                 RMK AO2 LTG DSNT NE-SE TSB09E34 SLP140 P0005 T02170189 =
2018-08-17 14:40 METAR KAKR 171840Z AUTO VRB04KT 6SM VCTS -RA FEW060 BKN100 OVC120 22/19 A2998
                 RMK AO2 LTG DSNT SE-W TSB09E34 PRESFR P0004 T02170189 =
2018-08-17 14:15 METAR KAKR 171815Z AUTO 22013KT 5SM -TSRA FEW017 BKN095 OVC110 24/22 A3001 RMK
                 AO2 LTG DSNT ALQDS TSB09 P0002 T02440217 =
2018-08-17 13:54 METAR KAKR 171754Z AUTO 22011KT 10SM VCTS -RA FEW060 BKN080 OVC110 26/22 A3000
                 RMK AO2 LTG DSNT S-W RAB16E30B52 SLP150 P0000 60001 T02560217 10267 20233 54000
                 =
2018-08-17 13:07 METAR KAKR 171707Z AUTO 19011KT 10SM SCT015 BKN060 27/22 A3000 RMK AO2 LTG DSNT
                 SW AND W T02670217 =
2018-08-17 12:54 METAR KAKR 171654Z AUTO 19010KT 10SM BKN014 27/22 A3000 RMK AO2 LTG DSNT SW AND
                 W SLP150 T02670217 =
2018-08-17 11:54 METAR KAKR 171554Z AUTO 19009KT 10SM FEW013 SCT031 27/22 A3000 RMK AO2 SLP150
                 T02670217 =
2018-08-17 11:37 METAR KAKR 171537Z AUTO 18008KT 10SM FEW011 SCT029 26/22 A3000 RMK AO2 T02610222
                 =
2018-08-17 11:25 METAR KAKR 171525Z AUTO 19006KT 10SM SCT012 BKN016 BKN029 26/22 A3000 RMK AO2
                 T02560222 =
2018-08-17 11:02 METAR KAKR 171502Z AUTO 22008KT 10SM BKN012 BKN033 OVC042 25/22 A3000 RMK AO2
                 T02500217 =
2018-08-17 10:54 METAR KAKR 171454Z AUTO 20008KT 10SM SCT010 BKN035 OVC043 25/22 A3000 RMK AO2
                 RAE03 SLP151 P0000 60001 T02500222 58003 =
2018-08-17 10:38 METAR KAKR 171438Z AUTO 20010KT 10SM FEW008 BKN034 OVC041 24/22 A3000 RMK AO2
                 RAE03 P0000 T02440217 =
2018-08-17 10:19 METAR KAKR 171419Z AUTO 19011KT 9SM SCT009 BKN019 OVC037 24/22 A3000 RMK AO2
                 RAE03 P0000 T02390217 =
2018-08-17 09:54 METAR KAKR 171354Z AUTO 20010KT 8SM -RA SCT007 BKN011 OVC016 24/22 A3001 RMK AO2
                 RAB53 SLP153 P0000 T02390217 =
2018-08-17 09:44 METAR KAKR 171344Z AUTO 20010KT 9SM FEW007 BKN014 OVC024 24/22 A3001 RMK AO2
                 T02390217 =
2018-08-17 09:12 METAR KAKR 171312Z AUTO 20008KT 8SM FEW007 BKN015 OVC022 24/22 A3001 RMK AO2
                 T02390217 =
2018-08-17 08:54 METAR KAKR 171254Z AUTO 20008KT 8SM BKN017 OVC025 23/22 A3001 RMK AO2 RAB1159E45
                 SLP154 P0001 T02330217 =
2018-08-17 08:11 METAR KAKR 171211Z AUTO 19007KT 5SM -RA BR SCT009 BKN016 OVC023 23/21 A3000 RMK
                 AO2 RAB1159 P0001 T02330211 =
2018-08-17 07:54 METAR KAKR 171154Z AUTO 19007KT 9SM SCT013 BKN018 OVC031 23/21 A3000 RMK AO2
                 RAB16E47 SLP149 P0000 60000 T02330211 10239 20233 50005 =
2018-08-17 06:54 METAR KAKR 171054Z AUTO 18008KT 10SM BKN014 OVC027 23/21 A3000 RMK AO2 RAB08E18
                 SLP150 P0000 T02330211 =
2018-08-17 06:49 METAR KAKR 171049Z AUTO 18007KT 10SM BKN014 BKN022 OVC027 23/21 A3000 RMK AO2
                 RAB08E18 P0000 =
2018-08-17 05:54 METAR KAKR 170954Z AUTO 19008KT 10SM BKN016 OVC023 24/21 A2998 RMK AO2 SLP145
                 T02390211 =
2018-08-17 05:28 METAR KAKR 170928Z AUTO 19008KT 10SM OVC016 24/22 A2998 RMK AO2 T02390217 =
2018-08-17 05:18 METAR KAKR 170918Z AUTO 20006KT 10SM OVC014 24/22 A2998 RMK AO2 T02390217 =
2018-08-17 04:54 METAR KAKR 170854Z AUTO 20006KT 10SM OVC015 24/21 A2998 RMK AO2 SLP142 T02390211
                 58012 =
2018-08-17 03:54 METAR KAKR 170754Z AUTO 19008KT 10SM OVC014 24/22 A2999 RMK AO2 SLP147 T02390217
                 =
2018-08-17 02:54 METAR KAKR 170654Z AUTO 19009KT 10SM OVC014 24/21 A3001 RMK AO2 SLP152 T02440211
                 =
2018-08-17 02:05 METAR KAKR 170605Z AUTO 18007KT 10SM BKN016 24/21 A3001 RMK AO2 T02390211 =
2018-08-17 01:54 METAR KAKR 170554Z AUTO 18007KT 10SM SCT016 23/21 A3001 RMK AO2 RAB03E14 SLP154
                 P0000 60000 T02330211 10250 20228 58009 =
2018-08-17 00:54 METAR KAKR 170454Z AUTO 20007KT 10SM FEW050 BKN060 OVC075 23/21 A3003 RMK AO2
                 SLP160 T02330206 402720222 =
2018-08-16 23:54 METAR KAKR 170354Z AUTO 16003KT 10SM FEW024 SCT060 OVC080 23/20 A3004 RMK AO2
                 RAE00 SLP162 P0000 T02280200 =
2018-08-16 23:14 METAR KAKR 170314Z AUTO 00000KT 10SM SCT021 SCT031 OVC042 23/20 A3004 RMK AO2
                 RAE00 P0000 T02280200 =

Support USWX by starting your Amazon purchase here.